Time;durP1;ratioP1;P1;durP2;ratioP2;P2;SDS_P1;SDS_P2;PMS_P1;PMS_P2;Temp;Humidity;BMP_temperature;BMP_pressure;BME280_temperature;BME280_humidity;BME280_pressure;Samples;Min_cycle;Max_cycle;Signal;HPM_P1;HPM_P2
2022/08/25 00:00:17;;;;;;;15.07;10.02;;;20.20;99.90;;;;;;4965510;29;20042;-71
2022/08/25 00:02:43;;;;;;;;;;;20.20;99.90;;;;;;4964891;29;20219;-72
2022/08/25 00:05:08;;;;;;;16.23;10.80;;;20.20;99.90;;;;;;4966046;28;19913;-72
2022/08/25 00:07:35;;;;;;;18.23;10.53;;;20.20;99.90;;;;;;4966348;28;20057;-72
2022/08/25 00:10:01;;;;;;;13.50;9.90;;;20.10;99.90;;;;;;4966254;28;20047;-72
2022/08/25 00:12:26;;;;;;;14.57;10.67;;;20.10;99.90;;;;;;4965554;28;20065;-72
2022/08/25 00:14:52;;;;;;;15.10;10.80;;;20.10;99.90;;;;;;4965847;28;20091;-72
2022/08/25 00:17:18;;;;;;;16.37;10.57;;;20.00;99.90;;;;;;4981171;28;20211;-72
2022/08/25 00:19:44;;;;;;;19.00;11.57;;;20.00;99.90;;;;;;4980934;28;20026;-72
2022/08/25 00:22:10;;;;;;;15.27;10.53;;;19.90;99.90;;;;;;4966127;28;20027;-72
2022/08/25 00:24:35;;;;;;;18.20;11.30;;;19.90;99.90;;;;;;4965752;28;20078;-72
2022/08/25 00:27:01;;;;;;;19.77;11.73;;;19.90;99.90;;;;;;4966004;28;20027;-72
2022/08/25 00:29:27;;;;;;;17.60;11.57;;;19.90;99.90;;;;;;4966068;28;20041;-72
2022/08/25 00:31:54;;;;;;;16.83;11.68;;;19.90;99.90;;;;;;4981008;28;20039;-72
2022/08/25 00:34:25;;;;;;;14.90;11.32;;;19.90;99.90;;;;;;4965497;28;20102;-72
2022/08/25 00:36:51;;;;;;;17.48;11.25;;;19.80;99.90;;;;;;4980486;28;20221;-72
2022/08/25 00:39:19;;;;;;;16.30;11.87;;;19.70;99.90;;;;;;4965868;28;20034;-72
2022/08/25 00:41:46;;;;;;;17.58;11.30;;;19.70;99.90;;;;;;4964898;28;20096;-72
2022/08/25 00:44:12;;;;;;;16.63;11.25;;;19.70;99.90;;;;;;4965347;29;20029;-71
2022/08/25 00:46:51;;;;;;;16.40;10.75;;;19.70;99.90;;;;;;4965669;28;20035;-71
2022/08/25 00:49:40;;;;;;;15.45;11.30;;;19.60;99.90;;;;;;4965231;28;20027;-72
2022/08/25 00:52:22;;;;;;;16.85;11.45;;;19.60;99.90;;;;;;4964783;29;20019;-71
2022/08/25 00:55:06;;;;;;;17.05;11.15;;;19.60;99.90;;;;;;4965450;28;20027;-71
2022/08/25 00:57:34;;;;;;;16.30;11.50;;;19.50;99.90;;;;;;4965487;28;20134;-71
2022/08/25 01:00:09;;;;;;;15.07;10.77;;;19.50;99.90;;;;;;4964312;29;20023;-71
2022/08/25 01:02:35;;;;;;;17.38;11.82;;;19.50;99.90;;;;;;4964158;29;20027;-72
2022/08/25 01:05:01;;;;;;;15.52;11.13;;;19.50;99.90;;;;;;4979958;28;20030;-71
2022/08/25 01:07:27;;;;;;;17.95;12.68;;;19.50;99.90;;;;;;4965245;28;20061;-71
2022/08/25 01:09:53;;;;;;;17.67;11.07;;;19.50;99.90;;;;;;4964309;28;20031;-71
2022/08/25 01:12:19;;;;;;;16.93;11.00;;;19.50;99.90;;;;;;4964066;28;20027;-71
2022/08/25 01:14:47;;;;;;;21.23;12.67;;;19.50;99.90;;;;;;4963848;29;20038;-71
2022/08/25 01:17:13;;;;;;;14.48;11.18;;;19.50;99.90;;;;;;4963988;28;20039;-72
2022/08/25 01:19:39;;;;;;;16.00;10.37;;;19.40;99.90;;;;;;4963750;29;20023;-72
2022/08/25 01:22:05;;;;;;;16.43;12.10;;;19.40;99.90;;;;;;4964824;28;20033;-72
2022/08/25 01:24:39;;;;;;;17.53;12.20;;;19.40;99.90;;;;;;4964756;28;20090;-72
2022/08/25 01:27:05;;;;;;;16.20;11.25;;;19.30;99.90;;;;;;4947998;28;20036;-71
2022/08/25 01:29:31;;;;;;;19.70;12.60;;;19.30;99.90;;;;;;4963842;29;20027;-71
2022/08/25 01:32:00;;;;;;;16.30;11.80;;;19.30;99.90;;;;;;4964934;28;20103;-77
2022/08/25 01:34:28;;;;;;;15.85;11.82;;;19.30;99.90;;;;;;4979442;28;20050;-78
2022/08/25 01:36:55;;;;;;;18.20;11.30;;;19.30;99.90;;;;;;4947912;28;20023;-78
2022/08/25 01:39:21;;;;;;;15.10;11.50;;;19.30;99.90;;;;;;4963382;29;20026;-79
2022/08/25 01:42:05;;;;;;;15.73;10.50;;;19.20;99.90;;;;;;4958028;29;20031;-78
2022/08/25 01:44:32;;;;;;;17.48;11.60;;;19.20;99.90;;;;;;4958380;29;20027;-80
2022/08/25 01:46:57;;;;;;;15.55;11.57;;;19.20;99.90;;;;;;4942692;28;20218;-79
2022/08/25 01:49:23;;;;;;;16.20;11.07;;;19.20;99.90;;;;;;4980154;28;20027;-80
2022/08/25 01:52:05;;;;;;;18.70;12.23;;;19.20;99.90;;;;;;4962033;28;20382;-80
2022/08/25 01:54:31;;;;;;;15.38;10.82;;;19.10;99.90;;;;;;4959893;29;20028;-79
2022/08/25 01:56:57;;;;;;;18.17;11.77;;;19.10;99.90;;;;;;4947937;28;20224;-78
2022/08/25 01:59:23;;;;;;;15.55;10.85;;;19.10;99.90;;;;;;4979808;28;20026;-77
2022/08/25 02:01:49;;;;;;;17.30;12.83;;;19.10;99.90;;;;;;4947736;29;20090;-78
2022/08/25 02:04:14;;;;;;;18.77;12.40;;;19.10;99.90;;;;;;4978610;28;20034;-79
2022/08/25 02:06:40;;;;;;;18.47;12.17;;;19.00;99.90;;;;;;4964935;28;20030;-78
2022/08/25 02:09:17;;;;;;;17.03;12.07;;;19.10;99.90;;;;;;4947695;29;20019;-78
2022/08/25 02:11:45;;;;;;;16.20;10.93;;;19.00;99.90;;;;;;4948423;29;20023;-77
2022/08/25 02:14:11;;;;;;;23.85;12.57;;;19.00;99.90;;;;;;4950191;29;20046;-77
2022/08/25 02:16:38;;;;;;;15.35;11.63;;;19.00;99.90;;;;;;4972231;29;20034;-79
2022/08/25 02:19:05;;;;;;;17.92;12.52;;;19.00;99.90;;;;;;4969612;28;20039;-72
2022/08/25 02:21:32;;;;;;;17.00;11.35;;;19.00;99.90;;;;;;4959670;29;20090;-71
2022/08/25 02:23:58;;;;;;;16.60;11.75;;;18.90;99.90;;;;;;4966890;28;20038;-71
2022/08/25 02:26:23;;;;;;;18.13;12.03;;;18.90;99.90;;;;;;4967248;28;20035;-71
2022/08/25 02:28:50;;;;;;;17.20;11.07;;;18.90;99.90;;;;;;4968258;28;20059;-71
2022/08/25 02:31:16;;;;;;;18.73;11.82;;;18.90;99.90;;;;;;4965239;28;20023;-72
2022/08/25 02:33:41;;;;;;;16.00;11.37;;;18.80;99.90;;;;;;4963792;28;20069;-72
2022/08/25 02:36:07;;;;;;;16.53;11.20;;;18.80;99.90;;;;;;4964184;28;20657;-72
2022/08/25 02:38:33;;;;;;;18.08;12.90;;;18.80;99.90;;;;;;4963848;28;20572;-72
2022/08/25 02:40:59;;;;;;;19.87;13.30;;;18.80;99.90;;;;;;4962982;29;20086;-72
2022/08/25 02:43:25;;;;;;;18.15;11.80;;;18.70;99.90;;;;;;4962529;28;20051;-72
2022/08/25 02:45:52;;;;;;;18.43;13.00;;;18.70;99.90;;;;;;4964042;28;20035;-71
2022/08/25 02:48:18;;;;;;;;;;;18.70;99.90;;;;;;4966867;28;20373;-72
2022/08/25 02:50:50;;;;;;;16.98;11.63;;;18.70;99.90;;;;;;4952360;29;19918;-72
2022/08/25 02:53:17;;;;;;;17.23;12.48;;;18.70;99.90;;;;;;4944348;29;20066;-72
2022/08/25 02:55:43;;;;;;;17.55;12.43;;;18.60;99.90;;;;;;4973932;28;20094;-70
2022/08/25 02:58:09;;;;;;;19.43;13.53;;;18.60;99.90;;;;;;4947855;28;20220;-71
2022/08/25 03:00:35;;;;;;;18.73;12.87;;;18.60;99.90;;;;;;4943418;29;20326;-71
2022/08/25 03:03:01;;;;;;;17.98;12.73;;;18.50;99.90;;;;;;4942938;29;20086;-70
2022/08/25 03:05:27;;;;;;;21.47;14.13;;;18.50;99.90;;;;;;4978093;28;20023;-71
2022/08/25 03:07:52;;;;;;;22.53;14.30;;;18.50;99.90;;;;;;4968449;28;20014;-71
2022/08/25 03:10:18;;;;;;;19.73;13.90;;;18.50;99.90;;;;;;4951336;28;20036;-70
2022/08/25 03:12:44;;;;;;;19.42;14.07;;;18.50;99.90;;;;;;4965368;29;20034;-71
2022/08/25 03:15:12;;;;;;;21.67;14.13;;;18.50;99.90;;;;;;4967413;28;20030;-71
2022/08/25 03:17:38;;;;;;;20.17;14.00;;;18.50;99.90;;;;;;4965350;28;20025;-71
2022/08/25 03:20:04;;;;;;;19.83;13.73;;;18.40;99.90;;;;;;4959966;29;20098;-69
2022/08/25 03:22:30;;;;;;;;;;;18.40;99.90;;;;;;4948663;29;20079;-71
2022/08/25 03:26:52;;;;;;;20.50;13.50;;;18.40;99.90;;;;;;4958388;29;20027;-71
2022/08/25 03:27:42;;;;;;;20.92;13.90;;;18.40;99.90;;;;;;4967046;28;20039;-70
2022/08/25 03:30:09;;;;;;;18.30;13.40;;;18.40;99.90;;;;;;4966076;29;20262;-70
2022/08/25 03:32:35;;;;;;;19.67;13.55;;;18.30;99.90;;;;;;4965824;29;20043;-68
2022/08/25 03:35:00;;;;;;;17.93;13.23;;;18.30;99.90;;;;;;4966547;28;20039;-69
2022/08/25 03:37:26;;;;;;;19.67;13.63;;;18.30;99.90;;;;;;4965769;28;20027;-70
2022/08/25 03:39:52;;;;;;;20.27;13.80;;;18.30;99.90;;;;;;4965849;29;20023;-70
2022/08/25 03:42:18;;;;;;;19.80;13.27;;;18.30;99.90;;;;;;4965786;29;20531;-71
2022/08/25 03:44:44;;;;;;;20.60;13.67;;;18.30;99.90;;;;;;4966403;28;20562;-70
2022/08/25 03:47:10;;;;;;;19.57;14.83;;;18.30;99.90;;;;;;4966702;28;20266;-70
2022/08/25 03:49:35;;;;;;;19.60;14.17;;;18.30;99.90;;;;;;4964945;29;20377;-70
2022/08/25 03:52:02;;;;;;;22.40;13.43;;;18.30;99.90;;;;;;4965610;28;20230;-70
2022/08/25 03:54:27;;;;;;;19.23;14.27;;;18.30;99.90;;;;;;4966360;28;20031;-70
2022/08/25 03:56:53;;;;;;;21.27;13.30;;;18.30;99.90;;;;;;4966543;28;20273;-70
2022/08/25 03:59:19;;;;;;;18.90;12.87;;;18.20;99.90;;;;;;4966524;28;20031;-70
2022/08/25 04:01:45;;;;;;;20.77;13.73;;;18.20;99.90;;;;;;4965530;29;20030;-70
2022/08/25 04:04:11;;;;;;;21.57;14.47;;;18.10;99.90;;;;;;4965415;28;20103;-71
2022/08/25 04:06:38;;;;;;;20.23;13.30;;;18.10;99.90;;;;;;4965451;29;20023;-70
2022/08/25 04:09:04;;;;;;;;;;;18.10;99.90;;;;;;4965684;28;20260;-70
2022/08/25 04:11:30;;;;;;;18.90;12.85;;;18.10;99.90;;;;;;4966337;28;19937;-70
2022/08/25 04:13:56;;;;;;;21.33;15.03;;;18.10;99.90;;;;;;4966038;28;20353;-70
2022/08/25 04:16:25;;;;;;;22.77;14.93;;;18.00;99.90;;;;;;4965004;28;20034;-70
2022/08/25 04:18:52;;;;;;;19.00;13.65;;;18.00;99.90;;;;;;4965822;28;20023;-70
2022/08/25 04:21:19;;;;;;;20.60;14.27;;;18.10;99.90;;;;;;4966117;28;20027;-70
2022/08/25 04:23:47;;;;;;;20.38;13.05;;;18.00;99.90;;;;;;4965795;28;20043;-70
2022/08/25 04:26:25;;;;;;;22.83;14.35;;;18.00;99.90;;;;;;4949204;29;20333;-70
2022/08/25 04:28:52;;;;;;;20.67;14.10;;;18.00;99.90;;;;;;4965935;28;20035;-70
2022/08/25 04:31:18;;;;;;;19.42;13.40;;;17.90;99.90;;;;;;4964832;28;20138;-70
2022/08/25 04:33:46;;;;;;;18.25;13.05;;;18.00;99.90;;;;;;4957640;28;20066;-70
2022/08/25 04:36:12;;;;;;;19.88;13.85;;;17.90;99.90;;;;;;4958434;29;20135;-71
2022/08/25 04:38:39;;;;;;;20.52;14.35;;;17.90;99.90;;;;;;4974997;28;20110;-70
2022/08/25 04:41:06;;;;;;;19.55;13.63;;;17.90;99.90;;;;;;4980651;28;20341;-70
2022/08/25 04:43:32;;;;;;;20.33;14.55;;;17.90;99.90;;;;;;4959274;29;20035;-71
2022/08/25 04:45:58;;;;;;;21.30;14.15;;;17.90;99.90;;;;;;4964820;28;20031;-69
2022/08/25 04:48:24;;;;;;;20.03;13.57;;;17.90;99.90;;;;;;4961009;28;20037;-69
2022/08/25 04:50:50;;;;;;;18.57;13.20;;;17.90;99.90;;;;;;4956527;28;20018;-71
2022/08/25 04:53:16;;;;;;;19.67;14.27;;;17.80;99.90;;;;;;4958442;28;20034;-70
2022/08/25 04:55:44;;;;;;;19.10;13.75;;;17.80;99.90;;;;;;4958684;29;20043;-70
2022/08/25 04:58:11;;;;;;;20.40;14.43;;;17.80;99.90;;;;;;4960937;28;20230;-70
2022/08/25 05:00:37;;;;;;;20.95;15.35;;;17.80;99.90;;;;;;4957293;28;20031;-69
2022/08/25 05:03:03;;;;;;;22.83;15.30;;;17.80;99.90;;;;;;4979965;28;20095;-70
2022/08/25 05:05:29;;;;;;;20.92;14.05;;;17.80;99.90;;;;;;4979486;28;20235;-70
2022/08/25 05:07:55;;;;;;;25.17;16.00;;;17.80;99.90;;;;;;4963915;28;20035;-70
2022/08/25 05:10:21;;;;;;;20.60;14.13;;;17.80;99.90;;;;;;4965175;29;20070;-71
2022/08/25 05:12:47;;;;;;;25.13;15.60;;;17.80;99.90;;;;;;4963830;29;20086;-70
2022/08/25 05:17:57;;;;;;;24.15;15.18;;;17.80;99.90;;;;;;4944928;29;20034;-70
2022/08/25 05:20:23;;;;;;;22.57;16.27;;;17.80;99.90;;;;;;4945339;29;20032;-70
2022/08/25 05:22:49;;;;;;;25.23;15.70;;;17.80;99.90;;;;;;4945609;29;20369;-70
2022/08/25 05:25:14;;;;;;;20.97;15.30;;;17.80;99.90;;;;;;4945749;29;20023;-70
2022/08/25 05:27:41;;;;;;;24.00;15.30;;;17.90;99.90;;;;;;4945491;29;20099;-70
2022/08/25 05:30:09;;;;;;;21.80;15.65;;;17.90;99.90;;;;;;4944480;29;20030;-70
2022/08/25 05:32:35;;;;;;;22.75;15.45;;;17.90;99.90;;;;;;4954066;29;20027;-70
2022/08/25 05:35:00;;;;;;;24.23;15.67;;;17.90;99.90;;;;;;4964314;28;20050;-69
2022/08/25 05:37:26;;;;;;;21.27;15.57;;;18.00;99.90;;;;;;4964620;28;20027;-70
2022/08/25 05:39:52;;;;;;;22.57;15.77;;;18.00;99.90;;;;;;4956035;29;20023;-69
2022/08/25 05:42:18;;;;;;;21.80;14.87;;;18.00;99.90;;;;;;4959094;28;20034;-71
2022/08/25 05:44:44;;;;;;;20.63;13.87;;;18.00;99.90;;;;;;4955142;28;20066;-71
2022/08/25 05:47:09;;;;;;;22.90;15.67;;;18.00;99.90;;;;;;4948324;28;20034;-72
2022/08/25 05:49:35;;;;;;;24.03;15.87;;;18.10;99.90;;;;;;4945292;29;20247;-71
2022/08/25 05:52:01;;;;;;;23.20;15.63;;;18.10;99.90;;;;;;4952551;29;20039;-72
2022/08/25 05:54:27;;;;;;;22.60;15.47;;;18.10;99.90;;;;;;4954955;29;20028;-71
2022/08/25 05:56:52;;;;;;;22.97;15.47;;;18.10;99.90;;;;;;4961220;28;20393;-72
2022/08/25 05:59:18;;;;;;;22.23;15.70;;;18.20;99.90;;;;;;4959642;28;20042;-72
2022/08/25 06:04:28;;;;;;;22.15;14.25;;;18.30;99.90;;;;;;4962337;29;20030;-71
2022/08/25 06:06:54;;;;;;;23.13;15.30;;;18.30;99.90;;;;;;4964268;28;20035;-72
2022/08/25 06:09:23;;;;;;;28.30;16.25;;;18.30;99.90;;;;;;4964237;28;20157;-71
2022/08/25 06:11:48;;;;;;;24.13;16.38;;;18.40;99.90;;;;;;4964120;28;20035;-71
2022/08/25 06:14:14;;;;;;;22.73;15.50;;;18.40;99.90;;;;;;4963978;28;20275;-72
2022/08/25 06:16:40;;;;;;;23.53;15.77;;;18.50;99.90;;;;;;4964359;28;20027;-72
2022/08/25 06:19:07;;;;;;;25.17;16.93;;;18.50;99.90;;;;;;4963860;28;20031;-72
2022/08/25 06:21:33;;;;;;;21.23;15.45;;;18.60;99.90;;;;;;4978866;28;20027;-72
2022/08/25 06:23:58;;;;;;;26.97;17.80;;;18.70;99.90;;;;;;4978680;28;20058;-72
2022/08/25 06:26:24;;;;;;;22.80;16.33;;;18.70;99.90;;;;;;4963949;28;20019;-72
2022/08/25 06:28:50;;;;;;;23.77;15.93;;;18.70;99.90;;;;;;4963857;28;20046;-72
2022/08/25 06:31:17;;;;;;;23.48;16.70;;;18.80;99.90;;;;;;4979063;28;20023;-72
2022/08/25 06:33:43;;;;;;;25.23;17.90;;;18.90;99.90;;;;;;4963683;28;20030;-72
2022/08/25 06:36:09;;;;;;;23.57;15.53;;;18.90;99.90;;;;;;4978531;28;20249;-72
2022/08/25 06:38:35;;;;;;;22.97;15.43;;;19.00;99.90;;;;;;4963196;28;20563;-72
2022/08/25 06:41:05;;;;;;;25.83;16.60;;;19.00;99.90;;;;;;4962724;29;20246;-72
2022/08/25 06:43:32;;;;;;;22.70;15.05;;;19.10;99.90;;;;;;4962525;29;20023;-72
2022/08/25 06:46:06;;;;;;;23.38;15.75;;;19.20;99.90;;;;;;4963826;28;20070;-72
2022/08/25 06:48:33;;;;;;;25.73;16.02;;;19.30;99.90;;;;;;4962798;28;20203;-72
2022/08/25 06:50:58;;;;;;;21.60;15.32;;;19.30;99.90;;;;;;4962536;28;20023;-72
2022/08/25 06:53:24;;;;;;;20.97;15.40;;;19.40;99.90;;;;;;4963526;28;20078;-72
2022/08/25 06:55:59;;;;;;;23.23;15.70;;;19.40;99.90;;;;;;4963828;28;20031;-72
2022/08/25 06:58:25;;;;;;;24.40;16.17;;;19.50;99.90;;;;;;4961760;28;20031;-72
2022/08/25 07:00:51;;;;;;;22.92;15.55;;;19.60;99.90;;;;;;4956851;29;20214;-72
2022/08/25 07:03:17;;;;;;;21.67;15.82;;;19.70;99.90;;;;;;4963288;28;20027;-72
2022/08/25 07:05:53;;;;;;;23.90;15.37;;;19.80;99.90;;;;;;4962708;28;20079;-72
2022/08/25 07:08:19;;;;;;;20.65;14.75;;;19.90;99.90;;;;;;4963381;28;20058;-72
2022/08/25 07:10:45;;;;;;;22.25;15.35;;;20.00;99.90;;;;;;4962305;29;20218;-72
2022/08/25 07:13:11;;;;;;;22.05;16.15;;;20.10;99.90;;;;;;4962099;29;20031;-72
2022/08/25 07:15:38;;;;;;;21.80;14.97;;;20.20;99.90;;;;;;4962467;29;20034;-72
2022/08/25 07:18:04;;;;;;;21.75;15.00;;;20.30;99.90;;;;;;4961732;28;20040;-72
2022/08/25 07:20:30;;;;;;;22.00;15.23;;;20.50;99.90;;;;;;4955188;28;20087;-72
2022/08/25 07:22:56;;;;;;;23.27;15.37;;;20.60;99.90;;;;;;4963239;29;20094;-72
2022/08/25 07:25:22;;;;;;;21.13;15.43;;;20.70;99.90;;;;;;4962218;29;20027;-72
2022/08/25 07:27:48;;;;;;;19.98;15.02;;;20.80;99.90;;;;;;4978404;28;20035;-72
2022/08/25 07:30:15;;;;;;;22.83;15.03;;;20.90;99.90;;;;;;4962862;28;20299;-72
2022/08/25 07:32:41;;;;;;;20.58;14.70;;;21.00;99.90;;;;;;4962115;29;20090;-72
2022/08/25 07:35:16;;;;;;;26.10;15.57;;;21.10;99.90;;;;;;4963044;28;20120;-72
2022/08/25 07:37:55;;;;;;;20.50;14.52;;;21.30;99.90;;;;;;4963314;28;20278;-72
2022/08/25 07:40:39;;;;;;;24.63;15.32;;;21.40;99.90;;;;;;4962517;28;20023;-72
2022/08/25 07:43:07;;;;;;;19.70;14.02;;;21.50;99.90;;;;;;4962117;28;20023;-72
2022/08/25 07:45:34;;;;;;;22.52;13.82;;;21.60;99.90;;;;;;4963236;28;20027;-72
2022/08/25 07:48:05;;;;;;;20.27;14.55;;;21.70;99.90;;;;;;4963113;28;20019;-73
2022/08/25 07:50:31;;;;;;;19.65;13.75;;;21.70;99.90;;;;;;4965080;28;20073;-72
2022/08/25 07:52:58;;;;;;;20.45;14.48;;;21.90;99.90;;;;;;4965742;29;20038;-72
2022/08/25 07:55:25;;;;;;;20.42;14.77;;;22.00;99.90;;;;;;4966671;28;20031;-72
2022/08/25 07:57:52;;;;;;;21.33;13.13;;;22.10;99.90;;;;;;4966138;28;20027;-72
2022/08/25 08:00:18;;;;;;;18.98;13.55;;;22.20;99.90;;;;;;4966522;28;20055;-72
2022/08/25 08:02:44;;;;;;;17.73;12.60;;;22.30;99.90;;;;;;4966131;28;20043;-72
2022/08/25 08:05:11;;;;;;;18.83;14.03;;;22.40;99.90;;;;;;4980886;28;20030;-72
2022/08/25 08:07:36;;;;;;;21.40;13.20;;;22.40;99.90;;;;;;4966372;28;20046;-72
2022/08/25 08:10:05;;;;;;;18.88;12.90;;;22.50;99.90;;;;;;4966306;28;20023;-72
2022/08/25 08:12:30;;;;;;;17.52;13.15;;;22.60;99.90;;;;;;4966089;28;20054;-72
2022/08/25 08:14:57;;;;;;;15.27;11.40;;;22.70;99.90;;;;;;4964864;29;20334;-72
2022/08/25 08:17:23;;;;;;;;;;;22.70;99.90;;;;;;4966576;28;20037;-72
2022/08/25 08:19:49;;;;;;;14.15;11.82;;;22.70;99.90;;;;;;4965993;28;19946;-72
2022/08/25 08:22:14;;;;;;;17.13;13.13;;;22.80;99.90;;;;;;4966065;28;20031;-72
2022/08/25 08:24:43;;;;;;;15.32;11.93;;;22.80;99.90;;;;;;4964772;29;20230;-72
2022/08/25 08:27:09;;;;;;;15.80;12.25;;;22.80;99.90;;;;;;4965728;28;20314;-72
2022/08/25 08:29:35;;;;;;;;;;;22.90;99.90;;;;;;4966122;29;20078;-72
2022/08/25 08:32:03;;;;;;;16.23;12.63;;;22.90;99.90;;;;;;4965952;28;19935;-72
2022/08/25 08:34:29;;;;;;;14.00;11.38;;;23.00;99.90;;;;;;4965660;28;20054;-79
2022/08/25 08:36:55;;;;;;;13.68;10.65;;;23.00;99.90;;;;;;4948635;28;20065;-79
2022/08/25 08:39:21;;;;;;;15.05;11.23;;;23.00;99.90;;;;;;4965229;28;20031;-79
2022/08/25 08:42:34;;;;;;;15.55;11.15;;;23.10;99.90;;;;;;4964785;28;20026;-75
2022/08/25 08:45:20;;;;;;;15.02;10.52;;;23.20;99.90;;;;;;4961717;29;20051;-75
2022/08/25 08:48:01;;;;;;;13.93;10.98;;;23.30;99.90;;;;;;4964672;28;20082;-75
2022/08/25 08:50:48;;;;;;;18.08;12.38;;;23.50;99.90;;;;;;4964760;29;20023;-75
2022/08/25 08:54:06;;;;;;;15.23;11.70;;;23.60;99.90;;;;;;4964334;29;20061;-75
2022/08/25 08:56:39;;;;;;;19.55;14.07;;;23.60;99.90;;;;;;4965560;28;20028;-75
2022/08/25 08:59:11;;;;;;;17.23;12.27;;;23.70;99.90;;;;;;4964930;28;20047;-75
2022/08/25 09:01:44;;;;;;;16.23;11.70;;;23.70;99.90;;;;;;4964414;28;20050;-75
2022/08/25 09:04:47;;;;;;;14.98;11.48;;;23.80;99.90;;;;;;4964132;28;20213;-75
2022/08/25 09:07:32;;;;;;;14.23;11.00;;;23.80;99.90;;;;;;4963926;28;20019;-75
2022/08/25 09:09:58;;;;;;;14.77;11.10;;;23.90;99.90;;;;;;4965472;28;20317;-75
2022/08/25 09:12:43;;;;;;;14.73;11.10;;;23.90;99.90;;;;;;4965026;28;20046;-75
2022/08/25 09:18:38;;;;;;;13.77;9.43;;;24.00;99.90;;;;;;4963473;28;20018;-75
2022/08/25 09:21:49;;;;;;;13.00;10.55;;;24.10;99.90;;;;;;4960036;29;20050;-75
2022/08/25 09:24:21;;;;;;;13.02;10.30;;;24.20;99.90;;;;;;4964065;29;20066;-74
2022/08/25 09:27:19;;;;;;;16.13;11.18;;;24.20;99.90;;;;;;4964042;29;20046;-74
2022/08/25 09:30:17;;;;;;;14.57;11.40;;;24.30;99.90;;;;;;4965246;28;20095;-75
2022/08/25 09:33:03;;;;;;;15.15;11.23;;;24.40;99.90;;;;;;4967786;28;20031;-74
2022/08/25 09:35:31;;;;;;;16.65;11.57;;;24.50;99.90;;;;;;4963724;28;20035;-74
2022/08/25 09:38:06;;;;;;;14.18;11.25;;;24.70;99.90;;;;;;4963721;28;20046;-75
2022/08/25 09:40:36;;;;;;;15.13;10.90;;;24.80;99.90;;;;;;4963776;29;20031;-74
2022/08/25 09:43:04;;;;;;;15.75;10.63;;;24.80;99.90;;;;;;4963292;28;20063;-75
2022/08/25 09:45:44;;;;;;;18.83;11.32;;;24.90;99.90;;;;;;4963673;28;20033;-75
2022/08/25 09:48:36;;;;;;;13.93;9.55;;;24.90;99.90;;;;;;4963697;28;20027;-75
2022/08/25 09:51:16;;;;;;;15.60;10.35;;;24.90;99.90;;;;;;4963734;29;20057;-75
2022/08/25 09:53:54;;;;;;;12.38;9.48;;;24.90;99.90;;;;;;4963433;28;20035;-76
2022/08/25 09:56:23;;;;;;;12.95;10.32;;;24.90;99.90;;;;;;4964998;28;20023;-75
2022/08/25 09:58:49;;;;;;;13.57;10.15;;;25.00;99.90;;;;;;4963163;28;20102;-76
2022/08/25 10:01:18;;;;;;;16.30;10.80;;;25.00;99.90;;;;;;4964573;29;20027;-76
2022/08/25 10:03:56;;;;;;;15.60;9.60;;;25.00;99.90;;;;;;4963072;28;20102;-76
2022/08/25 10:06:22;;;;;;;11.20;9.80;;;25.20;99.90;;;;;;4962632;29;20023;-76
2022/08/25 10:08:48;;;;;;;13.07;9.57;;;25.30;99.90;;;;;;4964149;28;20029;-75
2022/08/25 10:11:36;;;;;;;15.90;10.97;;;25.30;99.90;;;;;;4964517;28;20031;-76
2022/08/25 10:14:23;;;;;;;13.25;9.27;;;25.40;99.90;;;;;;4963556;28;20023;-74
2022/08/25 10:16:49;;;;;;;10.90;8.30;;;25.50;99.90;;;;;;4966837;28;20026;-72
2022/08/25 10:19:27;;;;;;;13.15;8.60;;;25.50;99.90;;;;;;4966247;29;20026;-71
2022/08/25 10:22:23;;;;;;;10.40;8.77;;;25.50;99.90;;;;;;4947059;29;20043;-71
2022/08/25 10:24:49;;;;;;;11.25;9.07;;;25.60;99.90;;;;;;4947192;29;20374;-72
2022/08/25 10:27:32;;;;;;;12.60;9.57;;;25.70;99.90;;;;;;4961726;28;20027;-71
2022/08/25 10:30:12;;;;;;;13.73;9.98;;;25.90;99.90;;;;;;4959725;28;20315;-71
2022/08/25 10:33:33;;;;;;;14.00;9.82;;;25.90;99.90;;;;;;4944714;29;20222;-71
2022/08/25 10:36:28;;;;;;;15.10;9.77;;;25.90;99.90;;;;;;4951749;29;20230;-72
2022/08/25 10:38:59;;;;;;;10.68;8.32;;;26.00;99.90;;;;;;4963540;28;20281;-71
2022/08/25 10:41:43;;;;;;;12.40;10.13;;;26.00;99.90;;;;;;4962969;29;20226;-71
2022/08/25 10:47:36;;;;;;;14.32;8.70;;;26.10;99.90;;;;;;4970346;28;20038;-71
2022/08/25 10:50:16;;;;;;;14.40;8.95;;;26.10;99.90;;;;;;4944652;29;20023;-72
2022/08/25 10:53:33;;;;;;;12.55;9.55;;;26.00;99.90;;;;;;4959160;29;20332;-72
2022/08/25 10:56:16;;;;;;;14.98;9.25;;;26.20;99.90;;;;;;4944758;29;20043;-71
2022/08/25 10:58:53;;;;;;;12.68;9.35;;;26.30;99.90;;;;;;4959344;28;20341;-72
2022/08/25 11:01:44;;;;;;;12.30;8.98;;;26.40;99.90;;;;;;4944497;29;20040;-71
2022/08/25 11:04:32;;;;;;;11.73;8.88;;;26.50;99.90;;;;;;4961827;28;20038;-72
2022/08/25 11:07:00;;;;;;;12.52;9.07;;;26.70;99.90;;;;;;4961653;28;20099;-72
2022/08/25 11:09:32;;;;;;;16.38;9.60;;;27.00;99.90;;;;;;4956483;28;20071;-72
2022/08/25 11:12:01;;;;;;;14.25;10.90;;;27.00;99.90;;;;;;4957152;28;20034;-71
2022/08/25 11:14:33;;;;;;;12.32;9.68;;;27.00;99.90;;;;;;4944416;29;20030;-72
2022/08/25 11:17:23;;;;;;;12.88;9.27;;;27.20;99.90;;;;;;4962650;28;20317;-72
2022/08/25 11:19:53;;;;;;;12.40;10.10;;;27.40;99.90;;;;;;4957891;28;20042;-72
2022/08/25 11:22:41;;;;;;;12.50;9.70;;;27.50;99.90;;;;;;4964104;28;20039;-72
2022/08/25 11:25:17;;;;;;;;;;;27.40;99.90;;;;;;4965497;28;20019;-77
2022/08/25 11:28:29;;;;;;;13.00;9.55;;;27.40;99.90;;;;;;4961190;29;19914;-74
2022/08/25 11:30:57;;;;;;;14.40;9.32;;;27.30;99.90;;;;;;4949295;29;20023;-74
2022/08/25 11:33:23;;;;;;;12.70;8.98;;;27.10;99.90;;;;;;4948884;29;20050;-73
2022/08/25 11:35:53;;;;;;;12.73;10.02;;;27.00;99.90;;;;;;4952579;28;20035;-73
2022/08/25 11:38:37;;;;;;;13.52;9.27;;;27.00;99.90;;;;;;4967304;28;20038;-73
2022/08/25 11:41:24;;;;;;;12.38;9.25;;;27.00;99.90;;;;;;4968234;28;20020;-73
2022/08/25 11:44:18;;;;;;;17.98;10.38;;;26.80;99.90;;;;;;4966774;28;20027;-73
2022/08/25 11:46:59;;;;;;;13.07;10.13;;;26.70;99.90;;;;;;4965855;28;20027;-73
2022/08/25 11:49:49;;;;;;;14.50;9.57;;;26.70;99.90;;;;;;4966952;29;20027;-73
2022/08/25 11:52:52;;;;;;;10.43;8.07;;;26.60;99.90;;;;;;4966604;29;20090;-74
2022/08/25 11:55:28;;;;;;;14.18;8.95;;;26.60;99.90;;;;;;4945743;29;20045;-73
2022/08/25 11:58:29;;;;;;;12.03;9.27;;;26.80;99.90;;;;;;4966574;28;20066;-73
2022/08/25 12:00:57;;;;;;;13.05;8.68;;;26.80;99.90;;;;;;4967223;28;20106;-73
2022/08/25 12:03:35;;;;;;;12.82;9.00;;;26.90;99.90;;;;;;4949371;29;20274;-73
2022/08/25 12:06:30;;;;;;;11.80;8.68;;;27.00;99.90;;;;;;4966226;28;20030;-73
2022/08/25 12:08:58;;;;;;;13.77;9.40;;;27.00;99.90;;;;;;4965881;28;20034;-74
2022/08/25 12:11:44;;;;;;;12.35;9.30;;;27.10;99.90;;;;;;4981031;28;20326;-74
2022/08/25 12:14:14;;;;;;;13.25;9.30;;;27.10;99.90;;;;;;4964933;29;20050;-74
2022/08/25 12:16:52;;;;;;;15.45;9.45;;;27.10;99.90;;;;;;4966341;28;20361;-74
2022/08/25 12:19:36;;;;;;;11.57;9.02;;;27.10;99.90;;;;;;4957433;28;20024;-74
2022/08/25 12:22:02;;;;;;;13.98;8.85;;;27.30;99.90;;;;;;4965921;28;20019;-74
2022/08/25 12:24:48;;;;;;;13.63;8.43;;;27.40;99.90;;;;;;4965793;28;20085;-74
2022/08/25 12:28:03;;;;;;;15.98;8.55;;;27.70;99.90;;;;;;4964888;28;20034;-74
2022/08/25 12:30:45;;;;;;;11.70;7.57;;;28.00;99.90;;;;;;4966183;28;20094;-74
2022/08/25 12:33:39;;;;;;;9.05;7.25;;;28.70;99.90;;;;;;4957030;28;20262;-73
2022/08/25 12:36:07;;;;;;;11.02;7.65;;;29.50;99.90;;;;;;4964764;28;20345;-74
2022/08/25 12:38:39;;;;;;;10.25;7.40;;;30.30;99.90;;;;;;4964500;28;20050;-73
2022/08/25 12:41:14;;;;;;;8.90;6.65;;;31.20;99.10;;;;;;4964708;28;20066;-74
2022/08/25 12:43:46;;;;;;;10.35;6.68;;;32.30;92.90;;;;;;4964772;28;20468;-74
2022/08/25 12:46:28;;;;;;;11.60;6.35;;;33.40;90.00;;;;;;4964850;28;20321;-74
2022/08/25 12:49:02;;;;;;;9.40;6.20;;;34.60;77.70;;;;;;4965706;28;20254;-73
2022/08/25 12:51:34;;;;;;;9.15;6.88;;;35.80;78.90;;;;;;4965453;28;20050;-74
2022/08/25 12:54:27;;;;;;;9.13;5.65;;;37.00;71.00;;;;;;4965380;28;20020;-74
2022/08/25 12:57:02;;;;;;;8.20;5.85;;;38.40;68.30;;;;;;4965195;28;20089;-74
2022/08/25 12:59:41;;;;;;;7.47;5.97;;;40.30;61.20;;;;;;4945473;29;20019;-74
2022/08/25 13:02:38;;;;;;;7.50;6.63;;;41.60;53.50;;;;;;4946430;29;20214;-74
2022/08/25 13:05:44;;;;;;;6.93;6.07;;;42.50;51.50;;;;;;4944919;29;20036;-74